CMA CGM Loire — 9HA3739 — position and weather

sailwx.info

Track history (hours):
 
Tides and Currents Weather Stations Pressure Air Temp Water Temp Dewpoint Dewpoint Depression Visibility Wind Speed Wind Dir Waves Ship Positions

CMA CGM Loire

Last reported at 2018-Aug-08 02:48 UTC. Time now 2018-Aug-20 16:48 UTC.
Position N 01°29' E 103°06'.
Warning: this ship's position is 12 days out of date.

Length 300 m; draft 13.4 m.

Type: Ship (hazmat cat A). MMSI: 229947000.

Date/timePositionNaut miles runAvg speedWind from/ knotsBaromVisibWave heightAir tempDewpointWater temp
2018-Aug-08 02:48N 01°29' E 103°06'617.2
2018-Aug-08 02:28N 01°25' E 103°10'917.2
2018-Aug-08 01:58N 01°20' E 103°17'716.2
2018-Aug-08 01:30N 01°16' E 103°23'917.4
2018-Aug-08 01:00N 01°13' E 103°31'815.9
2018-Aug-08 00:31N 01°12' E 103°39'4 7.0
2018-Aug-08 00:00N 01°14' E 103°42'5 9.6
2018-Aug-07 23:30N 01°16' E 103°46'0 0.8
2018-Aug-07 22:57N 01°16' E 103°47'0 0.0
2018-Aug-07 22:26N 01°16' E 103°47'0 0.0
2018-Aug-07 21:57N 01°16' E 103°47'0 0.0
2018-Aug-07 21:30N 01°16' E 103°47'0 0.0
2018-Aug-07 20:57N 01°16' E 103°47'0 0.0
2018-Aug-07 20:30N 01°16' E 103°47'0 0.0
2018-Aug-07 20:00N 01°16' E 103°47'0 0.0
2018-Aug-07 19:27N 01°16' E 103°47'0 0.0
2018-Aug-07 19:00N 01°16' E 103°47'0 0.0
2018-Aug-07 18:28N 01°16' E 103°47'0 0.0
2018-Aug-07 18:00N 01°16' E 103°47'0 0.0
2018-Aug-07 17:30N 01°16' E 103°47'0 0.0
2018-Aug-07 16:58N 01°16' E 103°47'0 0.0
2018-Aug-07 16:30N 01°16' E 103°47'0 0.0
2018-Aug-07 16:00N 01°16' E 103°47'0 0.0
2018-Aug-07 15:28N 01°16' E 103°47'0 0.0
2018-Aug-07 15:00N 01°16' E 103°47'0 0.0
2018-Aug-07 14:24N 01°16' E 103°47'0 0.0
2018-Aug-07 13:58N 01°16' E 103°47'0 0.0
2018-Aug-07 13:23N 01°16' E 103°47'0 0.0
2018-Aug-07 13:00N 01°16' E 103°47'0 0.0
2018-Aug-07 12:30N 01°16' E 103°47'0 0.0
2018-Aug-07 12:00N 01°16' E 103°47'0 0.0
2018-Aug-07 11:30N 01°16' E 103°47'0 0.0
2018-Aug-07 11:00N 01°16' E 103°47'0 0.0
2018-Aug-07 10:30N 01°16' E 103°47'0 0.0
2018-Aug-07 10:00N 01°16' E 103°47'0 0.0
2018-Aug-07 09:30N 01°16' E 103°47'0 0.0
2018-Aug-07 09:00N 01°16' E 103°47'0 0.0
2018-Aug-07 08:30N 01°16' E 103°47'0 0.0
2018-Aug-07 08:00N 01°16' E 103°47'0 0.0
2018-Aug-07 07:26N 01°16' E 103°47'0 0.0
2018-Aug-07 06:56N 01°16' E 103°47'0 0.0
2018-Aug-07 06:30N 01°16' E 103°47'0 0.0
2018-Aug-07 06:00N 01°16' E 103°47'0 0.0
2018-Aug-07 05:24N 01°16' E 103°47'0 0.0
2018-Aug-07 05:00N 01°16' E 103°47'0 0.0
2018-Aug-07 04:28N 01°16' E 103°47'0 0.0
2018-Aug-07 04:00N 01°16' E 103°47'0 0.0
2018-Aug-07 03:27N 01°16' E 103°47'0 0.0
2018-Aug-07 03:00N 01°16' E 103°47'0 0.0
2018-Aug-07 02:30N 01°16' E 103°47'0 0.0
2018-Aug-07 02:00N 01°16' E 103°47'0 0.0
2018-Aug-07 01:25N 01°16' E 103°47'0 0.1
2018-Aug-07 01:00N 01°16' E 103°47'0 0.6
2018-Aug-07 00:30N 01°16' E 103°47'2 4.6
2018-Aug-07 00:00N 01°14' E 103°47'4 8.5
2018-Aug-06 23:30N 01°13' E 103°51'3 6.9
2018-Aug-06 23:00N 01°14' E 103°54'3 6.8
2018-Aug-06 22:30N 01°15' E 103°58'4 7.7
2018-Aug-06 21:59N 01°16' E 104°02'4 8.6
2018-Aug-06 21:28N 01°16' E 104°06'4 8.2
2018-Aug-06 21:00N 01°17' E 104°10'4 8.4
2018-Aug-06 20:28N 01°18' E 104°14'5 8.6
2018-Aug-06 19:56N 01°19' E 104°19'4 8.3
2018-Aug-06 19:30N 01°21' E 104°22'815.5
2018-Aug-06 18:59N 01°26' E 104°28'  
2018-Jul-31 10:56N 22°47' E 116°54'816.3
2018-Jul-31 10:29N 22°52' E 117°01'1016.6
2018-Jul-31 09:54N 22°58' E 117°09'616.6
2018-Jul-31 09:31N 23°02' E 117°14'816.6
2018-Jul-31 09:00N 23°08' E 117°21'816.2
2018-Jul-31 08:30N 23°13' E 117°27'816.6
2018-Jul-31 08:01N 23°18' E 117°34'817.0
2018-Jul-31 07:31N 23°24' E 117°41'816.8
2018-Jul-31 07:01N 23°30' E 117°48'816.3
2018-Jul-31 06:30N 23°36' E 117°54'816.2
2018-Jul-31 06:01N 23°40' E 118°01'816.3
2018-Jul-31 05:31N 23°45' E 118°08'816.0
2018-Jul-31 05:01N 23°50' E 118°15'816.1
2018-Jul-31 04:30N 23°55' E 118°22'815.6
2018-Jul-31 04:01N 24°01' E 118°28'815.8
2018-Jul-31 03:30N 24°06' E 118°34'816.0
2018-Jul-31 03:00N 24°11' E 118°41'815.8
2018-Jul-31 02:30N 24°15' E 118°48'815.5
2018-Jul-31 02:00N 24°20' E 118°55'815.4
2018-Jul-31 01:27N 24°24' E 119°03'715.3
2018-Jul-31 01:00N 24°29' E 119°09'1114.8
2018-Jul-31 00:17N 24°34' E 119°19'  
Track history (hours):
 
Tides and Currents Weather Stations Pressure Air Temp Water Temp Dewpoint Dewpoint Depression Visibility Wind Speed Wind Dir Waves Ship Positions

CMA CGM Loire

Last reported at 2018-Aug-08 02:48 UTC. Time now 2018-Aug-20 16:48 UTC.
Position N 01°29' E 103°06'.
Warning: this ship's position is 12 days out of date.

Length 300 m; draft 13.4 m.

Type: Ship (hazmat cat A). MMSI: 229947000.

Date/timePositionNaut miles runAvg speedWind from/ knotsBaromVisibWave heightAir tempDewpointWater temp
2018-Aug-08 02:48N 01°29' E 103°06'617.2
2018-Aug-08 02:28N 01°25' E 103°10'917.2
2018-Aug-08 01:58N 01°20' E 103°17'716.2
2018-Aug-08 01:30N 01°16' E 103°23'917.4
2018-Aug-08 01:00N 01°13' E 103°31'815.9
2018-Aug-08 00:31N 01°12' E 103°39'4 7.0
2018-Aug-08 00:00N 01°14' E 103°42'5 9.6
2018-Aug-07 23:30N 01°16' E 103°46'0 0.8
2018-Aug-07 22:57N 01°16' E 103°47'0 0.0
2018-Aug-07 22:26N 01°16' E 103°47'0 0.0
2018-Aug-07 21:57N 01°16' E 103°47'0 0.0
2018-Aug-07 21:30N 01°16' E 103°47'0 0.0
2018-Aug-07 20:57N 01°16' E 103°47'0 0.0
2018-Aug-07 20:30N 01°16' E 103°47'0 0.0
2018-Aug-07 20:00N 01°16' E 103°47'0 0.0
2018-Aug-07 19:27N 01°16' E 103°47'0 0.0
2018-Aug-07 19:00N 01°16' E 103°47'0 0.0
2018-Aug-07 18:28N 01°16' E 103°47'0 0.0
2018-Aug-07 18:00N 01°16' E 103°47'0 0.0
2018-Aug-07 17:30N 01°16' E 103°47'0 0.0
2018-Aug-07 16:58N 01°16' E 103°47'0 0.0
2018-Aug-07 16:30N 01°16' E 103°47'0 0.0
2018-Aug-07 16:00N 01°16' E 103°47'0 0.0
2018-Aug-07 15:28N 01°16' E 103°47'0 0.0
2018-Aug-07 15:00N 01°16' E 103°47'0 0.0
2018-Aug-07 14:24N 01°16' E 103°47'0 0.0
2018-Aug-07 13:58N 01°16' E 103°47'0 0.0
2018-Aug-07 13:23N 01°16' E 103°47'0 0.0
2018-Aug-07 13:00N 01°16' E 103°47'0 0.0
2018-Aug-07 12:30N 01°16' E 103°47'0 0.0
2018-Aug-07 12:00N 01°16' E 103°47'0 0.0
2018-Aug-07 11:30N 01°16' E 103°47'0 0.0
2018-Aug-07 11:00N 01°16' E 103°47'0 0.0
2018-Aug-07 10:30N 01°16' E 103°47'0 0.0
2018-Aug-07 10:00N 01°16' E 103°47'0 0.0
2018-Aug-07 09:30N 01°16' E 103°47'0 0.0
2018-Aug-07 09:00N 01°16' E 103°47'0 0.0
2018-Aug-07 08:30N 01°16' E 103°47'0 0.0
2018-Aug-07 08:00N 01°16' E 103°47'0 0.0
2018-Aug-07 07:26N 01°16' E 103°47'0 0.0
2018-Aug-07 06:56N 01°16' E 103°47'0 0.0
2018-Aug-07 06:30N 01°16' E 103°47'0 0.0
2018-Aug-07 06:00N 01°16' E 103°47'0 0.0
2018-Aug-07 05:24N 01°16' E 103°47'0 0.0
2018-Aug-07 05:00N 01°16' E 103°47'0 0.0
2018-Aug-07 04:28N 01°16' E 103°47'0 0.0
2018-Aug-07 04:00N 01°16' E 103°47'0 0.0
2018-Aug-07 03:27N 01°16' E 103°47'0 0.0
2018-Aug-07 03:00N 01°16' E 103°47'0 0.0
2018-Aug-07 02:30N 01°16' E 103°47'0 0.0
2018-Aug-07 02:00N 01°16' E 103°47'0 0.0
2018-Aug-07 01:25N 01°16' E 103°47'0 0.1
2018-Aug-07 01:00N 01°16' E 103°47'0 0.6
2018-Aug-07 00:30N 01°16' E 103°47'2 4.6
2018-Aug-07 00:00N 01°14' E 103°47'4 8.5
2018-Aug-06 23:30N 01°13' E 103°51'3 6.9
2018-Aug-06 23:00N 01°14' E 103°54'3 6.8
2018-Aug-06 22:30N 01°15' E 103°58'4 7.7
2018-Aug-06 21:59N 01°16' E 104°02'4 8.6
2018-Aug-06 21:28N 01°16' E 104°06'4 8.2
2018-Aug-06 21:00N 01°17' E 104°10'4 8.4
2018-Aug-06 20:28N 01°18' E 104°14'5 8.6
2018-Aug-06 19:56N 01°19' E 104°19'4 8.3
2018-Aug-06 19:30N 01°21' E 104°22'815.5
2018-Aug-06 18:59N 01°26' E 104°28'  
2018-Jul-31 10:56N 22°47' E 116°54'816.3
2018-Jul-31 10:29N 22°52' E 117°01'1016.6
2018-Jul-31 09:54N 22°58' E 117°09'616.6
2018-Jul-31 09:31N 23°02' E 117°14'816.6
2018-Jul-31 09:00N 23°08' E 117°21'816.2
2018-Jul-31 08:30N 23°13' E 117°27'816.6
2018-Jul-31 08:01N 23°18' E 117°34'817.0
2018-Jul-31 07:31N 23°24' E 117°41'816.8
2018-Jul-31 07:01N 23°30' E 117°48'816.3
2018-Jul-31 06:30N 23°36' E 117°54'816.2
2018-Jul-31 06:01N 23°40' E 118°01'816.3
2018-Jul-31 05:31N 23°45' E 118°08'816.0
2018-Jul-31 05:01N 23°50' E 118°15'816.1
2018-Jul-31 04:30N 23°55' E 118°22'815.6
2018-Jul-31 04:01N 24°01' E 118°28'815.8
2018-Jul-31 03:30N 24°06' E 118°34'816.0
2018-Jul-31 03:00N 24°11' E 118°41'815.8
2018-Jul-31 02:30N 24°15' E 118°48'815.5
2018-Jul-31 02:00N 24°20' E 118°55'815.4
2018-Jul-31 01:27N 24°24' E 119°03'715.3
2018-Jul-31 01:00N 24°29' E 119°09'1114.8
2018-Jul-31 00:17N 24°34' E 119°19'  

Dump ship's entire track history